Time;durP1;ratioP1;P1;durP2;ratioP2;P2;SDS_P1;SDS_P2;PMS_P1;PMS_P2;Temp;Humidity;BMP_temperature;BMP_pressure;BME280_temperature;BME280_humidity;BME280_pressure;Samples;Min_cycle;Max_cycle;Signal;HPM_P1;HPM_P2
2021/03/06 00:01:02;;;;;;;;;;;;;;;22.33;20.74;97804.47;5063032;28;948;-76
2021/03/06 00:03:27;;;;;;;;;;;;;;;22.01;21.28;97808.25;5062550;28;691;-77
2021/03/06 00:05:54;;;;;;;;;;;;;;;21.88;21.40;97802.59;5063158;28;610;-77
2021/03/06 00:08:23;;;;;;;;;;;;;;;21.74;21.38;97803.81;5062317;28;998;-76
2021/03/06 00:10:49;;;;;;;;;;;;;;;21.97;21.29;97810.44;5062758;28;880;-77
2021/03/06 00:13:14;;;;;;;;;;;;;;;22.28;21.08;97813.53;5061828;28;1071;-77
2021/03/06 00:15:40;;;;;;;;;;;;;;;22.57;20.67;97799.97;5062493;28;669;-76
2021/03/06 00:18:05;;;;;;;;;;;;;;;21.78;21.31;97813.00;5062060;28;1906;-76
2021/03/06 00:20:31;;;;;;;;;;;;;;;21.66;21.69;97813.78;5062259;28;1071;-77
2021/03/06 00:22:56;;;;;;;;;;;;;;;21.91;21.58;97812.22;5061974;28;894;-77
2021/03/06 00:25:21;;;;;;;;;;;;;;;21.66;21.72;97808.13;5062322;28;814;-77
2021/03/06 00:27:47;;;;;;;;;;;;;;;22.14;21.00;97809.09;5062424;28;757;-77
2021/03/06 00:30:13;;;;;;;;;;;;;;;22.41;20.79;97799.34;5062181;28;665;-77
2021/03/06 00:32:39;;;;;;;;;;;;;;;22.54;20.69;97808.63;5062150;28;673;-76
2021/03/06 00:35:05;;;;;;;;;;;;;;;21.90;21.13;97813.47;5061737;28;988;-76
2021/03/06 00:37:30;;;;;;;;;;;;;;;21.69;21.76;97818.53;5061621;28;1930;-76
2021/03/06 00:39:56;;;;;;;;;;;;;;;21.79;21.34;97811.75;5061535;28;899;-76
2021/03/06 00:42:21;;;;;;;;;;;;;;;21.52;22.00;97814.22;5061997;28;649;-76
2021/03/06 00:44:46;;;;;;;;;;;;;;;21.98;21.48;97806.34;5061627;28;630;-77
2021/03/06 00:47:12;;;;;;;;;;;;;;;22.34;20.89;97834.38;5062067;28;705;-76
2021/03/06 00:49:38;;;;;;;;;;;;;;;22.59;20.30;97799.53;5077971;28;1135;-76
2021/03/06 00:52:06;;;;;;;;;;;;;;;22.20;20.75;97807.28;5044485;28;1174;-76
2021/03/06 00:54:31;;;;;;;;;;;;;;;21.76;21.46;97801.34;5061395;28;906;-76
2021/03/06 00:56:57;;;;;;;;;;;;;;;21.61;21.73;97811.50;5061608;28;576;-77
2021/03/06 00:59:24;;;;;;;;;;;;;;;21.81;21.72;97803.63;5077346;28;1897;-76
2021/03/06 01:01:49;;;;;;;;;;;;;;;22.26;20.69;97805.47;5061747;28;606;-77
2021/03/06 01:04:16;;;;;;;;;;;;;;;22.68;20.26;97802.44;5077274;28;1125;-76
2021/03/06 01:06:41;;;;;;;;;;;;;;;22.52;20.52;97799.75;5061561;28;938;-77
2021/03/06 01:09:07;;;;;;;;;;;;;;;21.99;21.20;97807.94;5061000;28;874;-77
2021/03/06 01:11:32;;;;;;;;;;;;;;;21.70;21.73;97803.13;5061553;28;685;-77
2021/03/06 01:13:58;;;;;;;;;;;;;;;21.51;21.98;97804.13;5043909;28;670;-76
2021/03/06 01:16:23;;;;;;;;;;;;;;;21.86;21.28;97802.25;5043779;28;881;-76
2021/03/06 01:18:49;;;;;;;;;;;;;;;22.29;21.02;97798.91;5060618;28;1901;-76
2021/03/06 01:21:14;;;;;;;;;;;;;;;22.50;20.70;97796.59;5061404;28;868;-76
2021/03/06 01:23:40;;;;;;;;;;;;;;;22.57;20.60;97797.16;5060236;28;661;-77
2021/03/06 01:26:05;;;;;;;;;;;;;;;21.85;21.39;97807.13;5060694;28;640;-77
2021/03/06 01:28:31;;;;;;;;;;;;;;;21.83;21.52;97801.13;5060800;28;682;-76
2021/03/06 01:30:56;;;;;;;;;;;;;;;21.68;21.37;97793.50;5061196;28;956;-77
2021/03/06 01:33:22;;;;;;;;;;;;;;;21.95;21.48;97807.25;5060292;28;838;-76
2021/03/06 01:35:47;;;;;;;;;;;;;;;22.40;20.74;97792.09;5061013;28;819;-77
2021/03/06 01:38:13;;;;;;;;;;;;;;;22.57;20.47;97796.34;5060563;28;1902;-77
2021/03/06 01:40:38;;;;;;;;;;;;;;;22.33;20.69;97799.56;5060828;28;761;-77
2021/03/06 01:43:07;;;;;;;;;;;;;;;22.04;21.04;97793.19;5060623;28;637;-76
2021/03/06 01:45:33;;;;;;;;;;;;;;;21.85;21.32;97801.44;5060908;28;865;-77
2021/03/06 01:47:59;;;;;;;;;;;;;;;21.76;21.65;97811.84;5060530;28;902;-77
2021/03/06 01:50:26;;;;;;;;;;;;;;;21.67;21.72;97815.38;5043501;28;1123;-76
2021/03/06 01:52:52;;;;;;;;;;;;;;;21.65;21.47;97817.06;5060694;28;710;-76
2021/03/06 01:55:17;;;;;;;;;;;;;;;21.82;21.47;97805.19;5060457;28;679;-76
2021/03/06 01:57:43;;;;;;;;;;;;;;;22.26;21.17;97816.00;5076800;28;1968;-76
2021/03/06 02:00:08;;;;;;;;;;;;;;;22.49;20.82;97818.50;5043028;28;1133;-76
2021/03/06 02:02:40;;;;;;;;;;;;;;;22.54;20.44;97822.81;5060491;28;918;-77
2021/03/06 02:05:06;;;;;;;;;;;;;;;22.02;21.13;97824.00;5043279;28;1071;-76
2021/03/06 02:07:31;;;;;;;;;;;;;;;21.74;21.47;97837.81;5060828;28;745;-76
2021/03/06 02:09:59;;;;;;;;;;;;;;;21.67;21.96;97838.03;5060221;28;650;-76
2021/03/06 02:12:27;;;;;;;;;;;;;;;21.65;21.86;97846.16;5060652;28;694;-76
2021/03/06 02:15:11;;;;;;;;;;;;;;;21.99;21.52;97830.59;5059865;28;978;-76
2021/03/06 02:17:46;;;;;;;;;;;;;;;22.36;20.92;97844.00;5060048;28;1906;-77
2021/03/06 02:20:29;;;;;;;;;;;;;;;22.58;20.56;97846.94;5060150;28;653;-76
2021/03/06 02:23:15;;;;;;;;;;;;;;;21.93;21.53;97849.41;5060376;28;654;-76
2021/03/06 02:25:40;;;;;;;;;;;;;;;21.58;21.93;97852.84;5060571;28;638;-76
2021/03/06 02:28:09;;;;;;;;;;;;;;;21.46;22.10;97844.31;5060466;28;685;-76
2021/03/06 02:30:34;;;;;;;;;;;;;;;21.88;21.91;97844.28;5042639;28;842;-76
2021/03/06 02:33:00;;;;;;;;;;;;;;;22.30;20.93;97859.22;5042373;28;921;-76
2021/03/06 02:35:26;;;;;;;;;;;;;;;22.50;20.81;97858.97;5060703;28;959;-76
2021/03/06 02:38:00;;;;;;;;;;;;;;;22.43;20.97;97862.81;5046758;28;2000;-76
2021/03/06 02:40:26;;;;;;;;;;;;;;;21.51;21.96;97869.25;5063995;28;713;-76
2021/03/06 02:42:51;;;;;;;;;;;;;;;21.79;21.49;97862.75;5046754;28;669;-77
2021/03/06 02:45:17;;;;;;;;;;;;;;;21.68;22.06;97859.44;5064094;28;1043;-76
2021/03/06 02:47:42;;;;;;;;;;;;;;;21.61;21.74;97865.31;5063891;28;877;-76
2021/03/06 02:50:11;;;;;;;;;;;;;;;21.52;22.33;97865.16;5063918;28;983;-76
2021/03/06 02:52:36;;;;;;;;;;;;;;;22.09;21.55;97866.31;5064485;28;630;-77
2021/03/06 02:55:03;;;;;;;;;;;;;;;22.45;20.77;97863.19;5063801;28;688;-76
2021/03/06 02:57:31;;;;;;;;;;;;;;;22.59;20.60;97873.28;5046506;28;1905;-76
2021/03/06 03:00:03;;;;;;;;;;;;;;;21.82;21.53;97884.50;5063036;28;1073;-76
2021/03/06 03:02:34;;;;;;;;;;;;;;;21.84;21.69;97875.56;5063409;28;856;-76
2021/03/06 03:05:08;;;;;;;;;;;;;;;21.75;21.90;97883.91;5063596;28;1059;-77
2021/03/06 03:07:35;;;;;;;;;;;;;;;21.60;22.09;97889.19;5046295;28;850;-77
2021/03/06 03:10:03;;;;;;;;;;;;;;;21.43;22.29;97891.28;5063432;28;705;-76
2021/03/06 03:12:30;;;;;;;;;;;;;;;21.94;21.80;97907.66;5063692;28;729;-77
2021/03/06 03:15:05;;;;;;;;;;;;;;;22.40;20.99;97919.66;5046313;28;1035;-76
2021/03/06 03:17:44;;;;;;;;;;;;;;;22.55;21.04;97917.97;5063278;28;1980;-76
2021/03/06 03:20:21;;;;;;;;;;;;;;;21.74;22.12;97927.63;5063351;28;683;-76
2021/03/06 03:22:48;;;;;;;;;;;;;;;21.75;22.00;97932.84;5063166;28;677;-76
2021/03/06 03:25:14;;;;;;;;;;;;;;;21.87;22.11;97936.19;5063412;28;646;-76
2021/03/06 03:27:39;;;;;;;;;;;;;;;21.70;22.20;97949.59;5045969;28;918;-77
2021/03/06 03:30:08;;;;;;;;;;;;;;;22.21;21.78;97955.44;5045525;28;936;-76
2021/03/06 03:32:34;;;;;;;;;;;;;;;22.43;21.33;97969.75;5062946;28;855;-76
2021/03/06 03:34:59;;;;;;;;;;;;;;;22.19;21.77;97970.06;5046001;28;952;-77
2021/03/06 03:37:25;;;;;;;;;;;;;;;21.72;22.43;97970.56;5063034;28;1905;-76
2021/03/06 03:39:50;;;;;;;;;;;;;;;21.89;22.31;97973.34;5045775;28;623;-76
2021/03/06 03:42:15;;;;;;;;;;;;;;;21.74;22.49;97976.56;5063149;28;669;-77
2021/03/06 03:44:41;;;;;;;;;;;;;;;21.72;22.21;97976.25;5045137;28;996;-76
2021/03/06 03:47:07;;;;;;;;;;;;;;;21.63;22.72;97984.56;5044622;28;834;-76
2021/03/06 03:49:32;;;;;;;;;;;;;;;21.56;22.55;97988.41;5045379;28;1134;-76
2021/03/06 03:51:58;;;;;;;;;;;;;;;21.86;22.40;97992.03;5045483;28;634;-76
2021/03/06 03:54:23;;;;;;;;;;;;;;;22.38;21.92;98004.34;5062709;28;650;-76
2021/03/06 03:56:49;;;;;;;;;;;;;;;22.61;21.24;98013.34;5045348;28;665;-75
2021/03/06 03:59:14;;;;;;;;;;;;;;;22.35;21.59;98006.06;5044590;28;1902;-77
2021/03/06 04:01:43;;;;;;;;;;;;;;;22.17;21.82;98020.72;5062509;28;843;-77
2021/03/06 04:04:29;;;;;;;;;;;;;;;21.69;22.64;98004.66;5062322;28;847;-76
2021/03/06 04:06:58;;;;;;;;;;;;;;;21.75;22.60;98009.31;5062392;28;1478;-76
2021/03/06 04:09:24;;;;;;;;;;;;;;;21.62;22.96;98004.84;5062338;28;749;-76
2021/03/06 04:11:49;;;;;;;;;;;;;;;21.56;22.71;98013.09;5062764;28;642;-76
2021/03/06 04:14:15;;;;;;;;;;;;;;;21.52;22.94;98007.50;5044723;28;837;-76
2021/03/06 04:16:40;;;;;;;;;;;;;;;21.53;23.14;98011.13;5062097;28;894;-76
2021/03/06 04:19:06;;;;;;;;;;;;;;;22.35;21.86;98014.56;5044599;28;1976;-77
2021/03/06 04:21:31;;;;;;;;;;;;;;;22.59;21.60;98006.56;5062214;28;801;-76
2021/03/06 04:23:57;;;;;;;;;;;;;;;22.50;21.37;98017.75;5061205;28;1084;-76
2021/03/06 04:26:23;;;;;;;;;;;;;;;21.99;22.09;98012.72;5061813;28;1146;-76
2021/03/06 04:28:48;;;;;;;;;;;;;;;21.72;22.46;98010.22;5076732;28;1177;-76
2021/03/06 04:31:14;;;;;;;;;;;;;;;21.50;23.15;98006.34;5060958;28;1270;-76
2021/03/06 04:33:40;;;;;;;;;;;;;;;21.87;22.61;98007.00;5061651;28;909;-76
2021/03/06 04:36:05;;;;;;;;;;;;;;;21.78;22.69;98013.31;5062080;28;584;-76
2021/03/06 04:38:31;;;;;;;;;;;;;;;21.63;23.14;98012.88;5061604;28;1905;-76
2021/03/06 04:40:56;;;;;;;;;;;;;;;21.65;22.91;98010.38;5061767;28;606;-76
2021/03/06 04:43:22;;;;;;;;;;;;;;;21.43;23.20;98015.03;5061194;28;1001;-76
2021/03/06 04:45:47;;;;;;;;;;;;;;;22.18;22.30;98024.38;5077734;28;832;-76
2021/03/06 04:48:13;;;;;;;;;;;;;;;22.47;21.90;98027.94;5061527;28;935;-77
2021/03/06 04:50:38;;;;;;;;;;;;;;;22.47;21.71;98030.00;5062050;28;656;-76
2021/03/06 04:53:04;;;;;;;;;;;;;;;21.94;22.44;98035.13;5061735;28;571;-76
2021/03/06 04:55:29;;;;;;;;;;;;;;;21.85;22.95;98030.88;5061730;28;814;-76
2021/03/06 04:57:54;;;;;;;;;;;;;;;21.92;22.79;98046.13;5061295;28;1961;-76
2021/03/06 05:00:20;;;;;;;;;;;;;;;21.75;23.04;98054.63;5060912;28;1037;-76
2021/03/06 05:02:45;;;;;;;;;;;;;;;21.68;22.89;98063.31;5061246;28;788;-76
2021/03/06 05:05:11;;;;;;;;;;;;;;;21.61;22.94;98072.00;5061278;28;725;-76
2021/03/06 05:07:37;;;;;;;;;;;;;;;21.50;23.39;98082.78;5061599;28;650;-77
2021/03/06 05:10:03;;;;;;;;;;;;;;;21.58;23.23;98085.00;5061083;28;849;-76
2021/03/06 05:12:28;;;;;;;;;;;;;;;22.28;22.20;98092.09;5077626;28;717;-77
2021/03/06 05:14:54;;;;;;;;;;;;;;;22.54;22.07;98098.66;5061144;28;685;-77
2021/03/06 05:17:19;;;;;;;;;;;;;;;22.64;21.52;98108.09;5060776;28;1968;-77
2021/03/06 05:19:45;;;;;;;;;;;;;;;21.79;23.15;98116.84;5060846;28;831;-76
2021/03/06 05:22:10;;;;;;;;;;;;;;;21.79;23.02;98117.66;5077044;28;886;-77
2021/03/06 05:24:36;;;;;;;;;;;;;;;21.80;23.08;98126.94;5061073;28;718;-77
2021/03/06 05:27:01;;;;;;;;;;;;;;;22.24;22.58;98127.44;5061233;28;713;-76
2021/03/06 05:29:31;;;;;;;;;;;;;;;22.47;22.17;98141.38;5060935;28;622;-76
2021/03/06 05:31:56;;;;;;;;;;;;;;;22.59;21.73;98139.84;5060966;28;829;-77
2021/03/06 05:34:22;;;;;;;;;;;;;;;22.25;22.37;98146.84;5060644;28;865;-76
2021/03/06 05:36:48;;;;;;;;;;;;;;;22.03;22.39;98157.91;5059245;28;1133;-75
2021/03/06 05:39:13;;;;;;;;;;;;;;;21.55;23.37;98170.03;5060730;28;1985;-76
2021/03/06 05:41:39;;;;;;;;;;;;;;;21.92;22.86;98173.59;5061182;28;646;-77
2021/03/06 05:44:04;;;;;;;;;;;;;;;21.60;22.95;98180.81;5060690;28;657;-77
2021/03/06 05:46:30;;;;;;;;;;;;;;;21.50;23.25;98184.69;5060662;28;1062;-76
2021/03/06 05:48:55;;;;;;;;;;;;;;;21.55;23.36;98187.00;5076363;28;932;-77
2021/03/06 05:51:21;;;;;;;;;;;;;;;21.82;23.13;98200.94;5076865;28;982;-77
2021/03/06 05:53:46;;;;;;;;;;;;;;;22.31;22.44;98203.78;5060619;28;681;-77
2021/03/06 05:56:12;;;;;;;;;;;;;;;22.45;22.05;98208.28;5061226;28;630;-76
2021/03/06 05:58:37;;;;;;;;;;;;;;;22.61;21.77;98205.41;5076157;28;1969;-76
2021/03/06 06:01:03;;;;;;;;;;;;;;;21.92;22.60;98216.09;5076794;28;1090;-76
2021/03/06 06:03:28;;;;;;;;;;;;;;;21.53;23.36;98223.47;5075559;28;934;-76
2021/03/06 06:05:54;;;;;;;;;;;;;;;21.83;23.14;98220.31;5076814;28;857;-77
2021/03/06 06:08:19;;;;;;;;;;;;;;;21.92;22.76;98233.09;5076001;28;908;-77
2021/03/06 06:10:45;;;;;;;;;;;;;;;21.79;23.12;98245.09;5076169;28;571;-77
2021/03/06 06:13:12;;;;;;;;;;;;;;;21.60;23.29;98251.59;5060021;28;975;-77
2021/03/06 06:15:37;;;;;;;;;;;;;;;21.63;23.02;98256.41;5060222;28;882;-77
2021/03/06 06:18:03;;;;;;;;;;;;;;;21.75;23.00;98263.41;5075515;28;1980;-76
2021/03/06 06:20:28;;;;;;;;;;;;;;;21.48;23.57;98261.59;5060327;28;725;-77
2021/03/06 06:23:12;;;;;;;;;;;;;;;21.53;23.54;98277.25;5060260;28;614;-77
2021/03/06 06:25:38;;;;;;;;;;;;;;;22.02;22.68;98277.34;5060426;28;606;-76
2021/03/06 06:28:04;;;;;;;;;;;;;;;22.41;22.30;98275.63;5060014;28;973;-76
2021/03/06 06:30:29;;;;;;;;;;;;;;;22.60;21.84;98283.22;5076228;28;829;-76
2021/03/06 06:32:55;;;;;;;;;;;;;;;22.34;22.06;98282.28;5060212;28;850;-77
2021/03/06 06:35:20;;;;;;;;;;;;;;;21.86;22.86;98275.28;5060159;28;709;-77
2021/03/06 06:37:58;;;;;;;;;;;;;;;21.66;23.23;98283.84;5060562;28;1963;-76
2021/03/06 06:40:24;;;;;;;;;;;;;;;21.63;23.05;98290.38;5060361;28;606;-77
2021/03/06 06:42:50;;;;;;;;;;;;;;;21.56;23.27;98285.69;5076040;28;865;-76
2021/03/06 06:45:18;;;;;;;;;;;;;;;21.78;23.16;98290.88;5059683;28;901;-76
2021/03/06 06:47:47;;;;;;;;;;;;;;;21.76;23.01;98299.81;5060046;28;892;-76
2021/03/06 06:50:13;;;;;;;;;;;;;;;21.53;23.42;98302.75;5075596;28;913;-76
2021/03/06 06:52:42;;;;;;;;;;;;;;;21.44;23.59;98311.03;5076069;28;693;-77
2021/03/06 06:55:08;;;;;;;;;;;;;;;21.95;23.10;98322.84;5075593;28;877;-76
2021/03/06 06:57:34;;;;;;;;;;;;;;;22.38;22.20;98321.84;5059910;28;1906;-77
2021/03/06 07:00:07;;;;;;;;;;;;;;;22.60;22.27;98329.41;5075257;28;1106;-76
2021/03/06 07:02:33;;;;;;;;;;;;;;;22.01;22.48;98338.88;5076006;28;625;-76
2021/03/06 07:04:59;;;;;;;;;;;;;;;22.00;22.90;98359.16;5059893;28;770;-76
2021/03/06 07:07:25;;;;;;;;;;;;;;;21.64;23.32;98365.59;5060134;28;676;-77
2021/03/06 07:10:00;;;;;;;;;;;;;;;21.61;23.39;98352.34;5059454;28;953;-76
2021/03/06 07:12:28;;;;;;;;;;;;;;;21.44;23.24;98357.09;5075001;28;922;-76
2021/03/06 07:14:54;;;;;;;;;;;;;;;21.66;23.26;98351.81;5059814;28;978;-77
2021/03/06 07:17:19;;;;;;;;;;;;;;;21.60;23.42;98353.53;5059499;28;1996;-76
2021/03/06 07:19:45;;;;;;;;;;;;;;;21.91;22.72;98356.13;5059505;28;736;-77
2021/03/06 07:22:12;;;;;;;;;;;;;;;22.31;22.49;98357.66;5059854;28;921;-77
2021/03/06 07:24:37;;;;;;;;;;;;;;;22.48;22.03;98349.16;5063096;28;840;-77
2021/03/06 07:27:03;;;;;;;;;;;;;;;22.52;21.88;98347.81;5063520;28;892;-76
2021/03/06 07:29:29;;;;;;;;;;;;;;;22.00;22.77;98356.34;5063080;28;615;-76
2021/03/06 07:31:55;;;;;;;;;;;;;;;21.94;22.76;98358.09;5063591;28;686;-76
2021/03/06 07:34:21;;;;;;;;;;;;;;;21.79;22.80;98361.22;5063115;28;613;-77
2021/03/06 07:36:47;;;;;;;;;;;;;;;21.69;23.05;98356.59;5062986;28;988;-77
2021/03/06 07:39:13;;;;;;;;;;;;;;;21.54;23.28;98366.63;5062491;28;1969;-77
2021/03/06 07:41:39;;;;;;;;;;;;;;;21.67;23.21;98361.13;5063354;28;1070;-76
2021/03/06 07:44:06;;;;;;;;;;;;;;;21.53;23.52;98370.69;5062846;28;595;-76
2021/03/06 07:46:31;;;;;;;;;;;;;;;21.53;23.45;98365.03;5063112;28;813;-76
2021/03/06 07:48:57;;;;;;;;;;;;;;;22.04;22.57;98376.91;5078328;28;1052;-76
2021/03/06 07:51:23;;;;;;;;;;;;;;;22.36;22.24;98382.66;5078835;28;879;-77
2021/03/06 07:53:48;;;;;;;;;;;;;;;22.49;22.06;98379.13;5078548;28;903;-77
2021/03/06 07:56:14;;;;;;;;;;;;;;;21.98;22.58;98387.94;5063189;28;630;-76
2021/03/06 07:58:49;;;;;;;;;;;;;;;21.79;22.77;98386.72;5078440;28;1901;-76
2021/03/06 08:01:30;;;;;;;;;;;;;;;21.78;23.15;98385.13;5063082;28;594;-76
2021/03/06 08:03:56;;;;;;;;;;;;;;;21.67;23.26;98387.41;5062258;28;853;-77
2021/03/06 08:06:22;;;;;;;;;;;;;;;21.52;23.44;98386.09;5078720;28;835;-76
2021/03/06 08:08:47;;;;;;;;;;;;;;;21.44;23.63;98398.78;5078268;28;642;-76
2021/03/06 08:11:36;;;;;;;;;;;;;;;21.88;22.99;98402.34;5062706;28;605;-77
2021/03/06 08:14:04;;;;;;;;;;;;;;;22.28;22.52;98398.25;5054580;28;1204;-77
2021/03/06 08:16:31;;;;;;;;;;;;;;;22.49;22.03;98405.44;5062284;28;837;-76
2021/03/06 08:19:09;;;;;;;;;;;;;;;21.88;23.04;98402.34;5061954;28;1969;-77
2021/03/06 08:21:35;;;;;;;;;;;;;;;21.70;23.20;98397.84;5062643;28;906;-76
2021/03/06 08:24:15;;;;;;;;;;;;;;;21.71;22.96;98410.78;5062240;28;729;-77
2021/03/06 08:26:41;;;;;;;;;;;;;;;22.19;22.63;98420.72;5062633;28;648;-77
2021/03/06 08:29:22;;;;;;;;;;;;;;;22.52;22.10;98413.06;5062315;28;634;-76
2021/03/06 08:31:58;;;;;;;;;;;;;;;22.60;21.93;98425.03;5061931;28;845;-76
2021/03/06 08:34:39;;;;;;;;;;;;;;;21.54;23.37;98434.56;5061156;28;914;-76
2021/03/06 08:37:14;;;;;;;;;;;;;;;21.45;23.39;98440.00;5062196;28;662;-76
2021/03/06 08:39:40;;;;;;;;;;;;;;;21.71;23.16;98444.78;5061885;28;1906;-76
2021/03/06 08:42:05;;;;;;;;;;;;;;;21.70;23.09;98451.66;5062159;28;634;-77
2021/03/06 08:44:30;;;;;;;;;;;;;;;21.57;23.39;98451.50;5061731;28;701;-77
2021/03/06 08:46:56;;;;;;;;;;;;;;;21.54;23.07;98457.22;5062270;28;859;-76
2021/03/06 08:49:21;;;;;;;;;;;;;;;21.56;23.30;98454.78;5077234;28;862;-76
2021/03/06 08:51:47;;;;;;;;;;;;;;;21.66;23.13;98465.09;5061906;28;1046;-76
2021/03/06 08:54:16;;;;;;;;;;;;;;;21.58;23.32;98461.59;5061657;28;662;-77
2021/03/06 08:56:41;;;;;;;;;;;;;;;21.45;23.63;98471.16;5078191;28;674;-76
2021/03/06 08:59:07;;;;;;;;;;;;;;;22.07;22.39;98472.34;5061183;28;1972;-76
2021/03/06 09:01:35;;;;;;;;;;;;;;;22.39;22.20;98468.88;5077256;28;943;-77
2021/03/06 09:04:04;;;;;;;;;;;;;;;22.57;22.08;98465.63;5076938;28;853;-77
2021/03/06 09:06:36;;;;;;;;;;;;;;;22.68;21.98;98474.66;5060718;28;1238;-76
2021/03/06 09:09:09;;;;;;;;;;;;;;;22.26;22.36;98471.56;5061279;28;656;-77
2021/03/06 09:12:13;;;;;;;;;;;;;;;22.27;22.43;98469.53;5061510;28;647;-76
2021/03/06 09:14:40;;;;;;;;;;;;;;;21.89;22.70;98472.72;5000599;28;1283;-76
2021/03/06 09:17:05;;;;;;;;;;;;;;;21.68;23.05;98476.78;5000357;28;879;-76
2021/03/06 09:19:30;;;;;;;;;;;;;;;21.65;23.05;98480.47;5022237;28;1970;-77
2021/03/06 09:21:59;;;;;;;;;;;;;;;21.51;23.23;98475.09;5061222;28;892;-77
2021/03/06 09:24:26;;;;;;;;;;;;;;;21.66;23.20;98479.25;5060942;28;729;-76
2021/03/06 09:26:51;;;;;;;;;;;;;;;21.59;23.30;98487.88;5077077;28;1342;-76
2021/03/06 09:29:17;;;;;;;;;;;;;;;21.79;22.99;98474.53;5061051;28;666;-76
2021/03/06 09:31:44;;;;;;;;;;;;;;;21.53;23.54;98489.63;5061179;28;702;-77
2021/03/06 09:34:09;;;;;;;;;;;;;;;21.73;23.12;98490.44;5076396;28;1192;-76
2021/03/06 09:36:35;;;;;;;;;;;;;;;22.20;22.55;98487.50;5060867;28;782;-77
2021/03/06 09:39:01;;;;;;;;;;;;;;;22.43;22.21;98488.63;5060562;28;1894;-76
2021/03/06 09:41:30;;;;;;;;;;;;;;;22.33;21.92;98491.28;5077173;28;658;-76
2021/03/06 09:43:56;;;;;;;;;;;;;;;22.09;22.34;98492.56;5060669;28;658;-76
2021/03/06 09:46:25;;;;;;;;;;;;;;;21.75;23.01;98490.78;5060003;28;828;-76
2021/03/06 09:48:54;;;;;;;;;;;;;;;21.52;23.25;98488.81;5060150;28;1012;-76
2021/03/06 09:51:20;;;;;;;;;;;;;;;22.00;22.78;98495.19;5060710;28;817;-76
2021/03/06 09:53:55;;;;;;;;;;;;;;;22.47;22.24;98506.34;5076340;28;1063;-77
2021/03/06 09:56:20;;;;;;;;;;;;;;;22.67;21.64;98504.28;5060891;28;741;-77
2021/03/06 09:58:46;;;;;;;;;;;;;;;21.93;22.91;98521.63;5060041;28;1902;-77
2021/03/06 10:01:18;;;;;;;;;;;;;;;21.73;23.21;98521.59;5060758;28;972;-77
2021/03/06 10:03:44;;;;;;;;;;;;;;;21.77;23.14;98527.22;5075891;28;856;-76
2021/03/06 10:06:10;;;;;;;;;;;;;;;21.82;22.98;98530.34;5060677;28;938;-76
2021/03/06 10:08:51;;;;;;;;;;;;;;;22.38;22.33;98531.66;5060108;28;682;-76
2021/03/06 10:11:17;;;;;;;;;;;;;;;22.46;21.90;98525.41;5060448;28;701;-76
2021/03/06 10:13:47;;;;;;;;;;;;;;;21.89;22.96;98528.59;5060219;28;634;-77
2021/03/06 10:16:12;;;;;;;;;;;;;;;21.71;23.15;98535.41;5076740;28;1221;-77
2021/03/06 10:18:38;;;;;;;;;;;;;;;21.65;23.15;98534.28;5059617;28;1906;-76
2021/03/06 10:21:11;;;;;;;;;;;;;;;22.04;22.50;98541.25;5060598;28;894;-76
2021/03/06 10:23:36;;;;;;;;;;;;;;;22.35;22.18;98534.16;5060137;28;690;-77
2021/03/06 10:26:31;;;;;;;;;;;;;;;22.56;21.85;98537.75;5060914;28;674;-76
2021/03/06 10:28:57;;;;;;;;;;;;;;;21.94;22.91;98530.94;5046972;28;1175;-76
2021/03/06 10:31:36;;;;;;;;;;;;;;;21.53;23.20;98532.09;5060351;28;833;-76
2021/03/06 10:34:21;;;;;;;;;;;;;;;21.75;23.12;98529.66;5075751;28;851;-76
2021/03/06 10:37:05;;;;;;;;;;;;;;;22.25;22.33;98521.00;5060249;28;681;-76
2021/03/06 10:39:30;;;;;;;;;;;;;;;22.57;22.14;98523.13;5060111;28;1898;-77
2021/03/06 10:41:56;;;;;;;;;;;;;;;22.24;22.46;98533.59;5060200;28;660;-77
2021/03/06 10:44:22;;;;;;;;;;;;;;;21.81;22.81;98536.41;5059898;28;666;-76
2021/03/06 10:46:57;;;;;;;;;;;;;;;21.79;23.15;98530.41;5060041;28;842;-77
2021/03/06 10:49:23;;;;;;;;;;;;;;;21.68;22.93;98541.94;5059860;28;831;-76
2021/03/06 10:51:50;;;;;;;;;;;;;;;21.59;23.28;98533.19;5076051;28;1150;-76
2021/03/06 10:54:18;;;;;;;;;;;;;;;21.51;23.24;98535.34;5075615;28;622;-76
2021/03/06 10:56:43;;;;;;;;;;;;;;;21.51;23.48;98537.41;5061421;28;673;-76
2021/03/06 10:59:09;;;;;;;;;;;;;;;21.74;23.01;98540.19;5078942;28;1898;-76
2021/03/06 11:01:44;;;;;;;;;;;;;;;22.27;22.26;98532.69;5063389;28;925;-77
2021/03/06 11:04:22;;;;;;;;;;;;;;;22.44;21.98;98535.59;5063661;28;825;-77
2021/03/06 11:06:57;;;;;;;;;;;;;;;22.43;21.96;98534.78;5079328;28;862;-77
2021/03/06 11:09:23;;;;;;;;;;;;;;;21.62;23.24;98540.84;5063637;28;681;-77
2021/03/06 11:11:49;;;;;;;;;;;;;;;21.77;23.15;98544.22;5063798;28;611;-77
2021/03/06 11:14:24;;;;;;;;;;;;;;;21.70;23.06;98544.31;5079271;28;1184;-76
2021/03/06 11:16:49;;;;;;;;;;;;;;;21.72;23.38;98547.53;5079548;28;839;-76
2021/03/06 11:19:15;;;;;;;;;;;;;;;21.79;23.13;98545.34;5079392;28;1898;-76
2021/03/06 11:21:40;;;;;;;;;;;;;;;21.59;23.27;98550.19;5063732;28;670;-77
2021/03/06 11:24:06;;;;;;;;;;;;;;;21.78;22.94;98552.25;5063545;28;721;-76
2021/03/06 11:26:31;;;;;;;;;;;;;;;21.50;23.62;98564.09;5079280;28;1438;-76
2021/03/06 11:28:57;;;;;;;;;;;;;;;21.85;22.96;98556.97;5078377;28;1011;-76
2021/03/06 11:31:23;;;;;;;;;;;;;;;22.33;22.60;98565.00;5063315;28;903;-76
2021/03/06 11:33:48;;;;;;;;;;;;;;;22.49;22.21;98560.63;5062985;28;924;-76
2021/03/06 11:36:14;;;;;;;;;;;;;;;22.60;21.91;98561.19;5063415;28;713;-77
2021/03/06 11:38:39;;;;;;;;;;;;;;;21.91;23.00;98555.25;5062926;28;1979;-77
2021/03/06 11:41:05;;;;;;;;;;;;;;;21.66;23.10;98560.56;5063309;28;564;-76
2021/03/06 11:43:30;;;;;;;;;;;;;;;21.64;23.39;98558.19;5078485;28;890;-76
2021/03/06 11:45:56;;;;;;;;;;;;;;;21.92;23.31;98567.41;5063094;28;943;-76
2021/03/06 11:48:21;;;;;;;;;;;;;;;22.33;22.50;98567.81;5062594;28;953;-76
2021/03/06 11:50:47;;;;;;;;;;;;;;;22.56;22.35;98563.28;5063172;28;614;-77
2021/03/06 11:53:13;;;;;;;;;;;;;;;22.06;22.71;98567.09;5078838;28;656;-77
2021/03/06 11:55:38;;;;;;;;;;;;;;;21.95;22.77;98572.19;5062971;28;642;-76
2021/03/06 11:58:04;;;;;;;;;;;;;;;21.43;23.64;98584.03;5062155;28;1965;-77
2021/03/06 12:00:30;;;;;;;;;;;;;;;21.87;23.00;98582.06;5062473;28;1224;-76
2021/03/06 12:02:56;;;;;;;;;;;;;;;21.62;23.34;98588.19;5078573;28;1084;-77
2021/03/06 12:05:21;;;;;;;;;;;;;;;21.57;23.71;98592.28;5062757;28;693;-76
2021/03/06 12:07:47;;;;;;;;;;;;;;;21.49;23.78;98590.81;5062447;28;682;-77
2021/03/06 12:10:13;;;;;;;;;;;;;;;21.45;23.97;98595.72;5061728;28;893;-76
2021/03/06 12:12:39;;;;;;;;;;;;;;;21.47;23.66;98598.94;5062172;28;885;-76
2021/03/06 12:15:05;;;;;;;;;;;;;;;22.08;23.06;98598.66;5078519;28;984;-77
2021/03/06 12:17:30;;;;;;;;;;;;;;;22.41;22.38;98604.53;5062602;28;1961;-77
2021/03/06 12:19:56;;;;;;;;;;;;;;;22.62;22.24;98610.53;5062320;28;594;-77
2021/03/06 12:22:22;;;;;;;;;;;;;;;22.40;22.39;98612.22;5062481;28;781;-76
2021/03/06 12:24:47;;;;;;;;;;;;;;;21.83;23.13;98614.09;5061951;28;845;-77
2021/03/06 12:27:13;;;;;;;;;;;;;;;21.65;23.51;98609.94;5062079;28;906;-77
2021/03/06 12:29:39;;;;;;;;;;;;;;;21.78;23.28;98619.44;5062000;28;971;-76
2021/03/06 12:32:05;;;;;;;;;;;;;;;21.79;23.31;98621.84;5062681;28;643;-77
2021/03/06 12:34:30;;;;;;;;;;;;;;;21.00;24.33;98624.28;5061983;28;693;-77
2021/03/06 12:36:55;;;;;;;;;;;;;;;21.38;23.95;98635.47;5061711;28;1070;-77
2021/03/06 12:39:21;;;;;;;;;;;;;;;21.89;23.23;98633.41;5061707;28;1910;-77
2021/03/06 12:41:46;;;;;;;;;;;;;;;21.86;23.35;98632.22;5062147;28;975;-77
2021/03/06 12:44:12;;;;;;;;;;;;;;;21.18;24.35;98633.31;5061860;28;602;-76
2021/03/06 12:46:37;;;;;;;;;;;;;;;21.55;23.54;98635.22;5062143;28;666;-77
2021/03/06 12:49:03;;;;;;;;;;;;;;;21.92;23.04;98653.19;5061996;28;635;-76
2021/03/06 12:51:28;;;;;;;;;;;;;;;21.67;23.60;98653.63;5061358;28;1174;-76
2021/03/06 12:53:54;;;;;;;;;;;;;;;21.55;23.60;98657.03;5061371;28;941;-77
2021/03/06 12:56:19;;;;;;;;;;;;;;;21.38;23.92;98652.47;5062119;28;1057;-76
2021/03/06 12:58:45;;;;;;;;;;;;;;;22.03;23.19;98658.69;5061214;28;1910;-76
2021/03/06 13:01:10;;;;;;;;;;;;;;;22.49;22.30;98662.72;5061669;28;674;-76
2021/03/06 13:03:36;;;;;;;;;;;;;;;22.77;21.93;98656.44;5061344;28;648;-76
2021/03/06 13:06:02;;;;;;;;;;;;;;;22.24;22.46;98669.66;5061397;28;1021;-76